RYR7JY EIKY-EGSS
Flight info
| Callsign | RYR7JY |
|---|---|
| Flight time | N/A |
| Altitude | 33000 |
| Route | CRK3C CRK DCT ENJEX DCT AVZAC DCT ICOSA DCT RUHUN DCT YORQI DCT CAWZE/N0364F230 P2 SIRIC |
| Aircraft | B38M/M-SDE1FGHILORVWXY/HB1 |
Departure
| Time | N/A |
|---|---|
| Airport | Kerry Airport (EIKY) |
Arrival
| Time | 2026-04-30 18:04 |
|---|---|
| Airport | London Stansted Airport (EGSS) |
| Time | Latitude | Longitude | Altitude | Speed | Heading |
|---|---|---|---|---|---|
| 2026-04-30 17:39 | 51.33333 | -1.03677 | 15969 ft | 303 kts | 81° |
| 2026-04-30 17:41 | 51.37209 | -0.77626 | 14894 ft | 299 kts | 81° |
| 2026-04-30 17:42 | 51.38163 | -0.71165 | 14639 ft | 298 kts | 81° |
| 2026-04-30 17:42 | 51.39578 | -0.61517 | 14232 ft | 296 kts | 81° |
| 2026-04-30 17:43 | 51.40512 | -0.55118 | 13965 ft | 295 kts | 81° |
| 2026-04-30 17:44 | 51.41901 | -0.45561 | 13548 ft | 293 kts | 81° |
| 2026-04-30 17:44 | 51.43552 | -0.36185 | 13098 ft | 298 kts | 60° |
| 2026-04-30 17:46 | 51.52753 | -0.27781 | 12429 ft | 308 kts | 29° |
| 2026-04-30 17:47 | 51.60463 | -0.21865 | 11944 ft | 306 kts | 29° |
| 2026-04-30 17:48 | 51.68090 | -0.15993 | 11402 ft | 303 kts | 29° |
| 2026-04-30 17:48 | 51.73771 | -0.11605 | 10985 ft | 301 kts | 29° |
| 2026-04-30 17:49 | 51.81430 | -0.06191 | 10426 ft | 300 kts | 27° |
| 2026-04-30 17:50 | 51.88348 | -0.01323 | 9450 ft | 292 kts | 27° |
| 2026-04-30 17:51 | 51.93891 | 0.02592 | 8525 ft | 288 kts | 27° |
| 2026-04-30 17:52 | 51.99412 | 0.06237 | 7617 ft | 287 kts | 15° |
| 2026-04-30 17:53 | 52.05128 | 0.16981 | 6783 ft | 252 kts | 102° |
| 2026-04-30 17:54 | 52.00043 | 0.20554 | 5547 ft | 241 kts | 213° |
| 2026-04-30 17:55 | 51.95519 | 0.13092 | 4510 ft | 231 kts | 221° |
| 2026-04-30 17:56 | 51.91160 | 0.05687 | 4004 ft | 228 kts | 221° |
| 2026-04-30 17:57 | 51.87260 | 0.01734 | 4001 ft | 219 kts | 200° |
| 2026-04-30 17:58 | 51.82933 | 0.01128 | 3456 ft | 197 kts | 176° |
| 2026-04-30 17:59 | 51.78069 | 0.01157 | 2532 ft | 151 kts | 157° |
| 2026-04-30 18:00 | 51.77945 | 0.07300 | 2519 ft | 162 kts | 67° |
| 2026-04-30 18:00 | 51.80386 | 0.11338 | 2276 ft | 169 kts | 51° |
| 2026-04-30 18:01 | 51.82055 | 0.13828 | 1888 ft | 156 kts | 52° |
| 2026-04-30 18:02 | 51.84406 | 0.17350 | 1271 ft | 149 kts | 51° |
| 2026-04-30 18:02 | 51.86595 | 0.20619 | 677 ft | 142 kts | 48° |
| 2026-04-30 18:03 | 51.88611 | 0.23642 | 344 ft | 77 kts | 43° |
| 2026-04-30 18:04 | 51.88920 | 0.24456 | 353 ft | 8 kts | 95° |
| 2026-04-30 18:05 | 51.89102 | 0.24869 | 352 ft | 27 kts | 43° |
| 2026-04-30 18:06 | 51.89339 | 0.25665 | 351 ft | 19 kts | 133° |
| 2026-04-30 18:07 | 51.89204 | 0.25900 | 358 ft | 13 kts | 132° |
| 2026-04-30 18:08 | 51.89213 | 0.26003 | 354 ft | 1 kts | 43° |
| 2026-04-30 18:09 | 51.89214 | 0.26004 | 355 ft | 0 kts | 43° |